createdAt,value
2023-01-17T00:00:30.324Z,34.08
2023-01-17T00:03:33.874Z,34.97
2023-01-17T00:06:54.534Z,26.42
2023-01-17T00:09:59.176Z,28.30
2023-01-17T00:13:03.583Z,25.90
2023-01-17T00:16:06.601Z,25.92
2023-01-17T00:19:27.461Z,29.23
2023-01-17T00:22:50.223Z,31.90
2023-01-17T00:26:04.997Z,33.70
2023-01-17T00:29:07.320Z,31.23
2023-01-17T00:32:09.619Z,33.83
2023-01-17T00:35:11.947Z,33.60
2023-01-17T00:38:16.558Z,34.08
2023-01-17T00:41:18.934Z,33.25
2023-01-17T00:44:39.551Z,29.17
2023-01-17T00:48:03.537Z,27.52
2023-01-17T00:51:24.741Z,31.73
2023-01-17T00:54:45.478Z,34.83
2023-01-17T00:58:06.169Z,34.87
2023-01-17T01:01:26.904Z,28.10
2023-01-17T01:04:47.932Z,31.65
2023-01-17T01:08:09.167Z,29.40
2023-01-17T01:11:33.987Z,27.70
2023-01-17T01:14:54.573Z,28.98
2023-01-17T01:18:15.161Z,29.67
2023-01-17T01:21:35.813Z,32.22
2023-01-17T01:24:56.567Z,29.50
2023-01-17T01:28:25.738Z,30.58
2023-01-17T01:31:46.421Z,27.53
2023-01-17T01:34:48.811Z,29.65
2023-01-17T01:37:51.146Z,29.00
2023-01-17T01:40:56.148Z,29.50
2023-01-17T01:43:58.585Z,31.13
2023-01-17T01:47:01.096Z,25.55
2023-01-17T01:50:07.200Z,34.55
2023-01-17T01:53:10.789Z,36.97
2023-01-17T01:56:15.324Z,28.65
2023-01-17T01:59:20.817Z,24.73
2023-01-17T02:02:23.290Z,37.53
2023-01-17T02:05:29.207Z,32.13
2023-01-17T02:08:31.687Z,29.90
2023-01-17T02:11:36.081Z,27.80
2023-01-17T02:14:38.440Z,27.55
2023-01-17T02:18:37.900Z,29.58
2023-01-17T02:22:15.757Z,30.10
2023-01-17T02:25:26.793Z,27.55
2023-01-17T02:29:10.945Z,27.50
2023-01-17T02:32:38.061Z,28.70
2023-01-17T02:35:44.752Z,28.57
2023-01-17T02:39:09.414Z,24.88
2023-01-17T02:42:17.939Z,21.02
2023-01-17T02:45:20.960Z,22.23
2023-01-17T02:48:27.549Z,24.70
2023-01-17T02:51:42.145Z,22.15
2023-01-17T02:54:44.465Z,25.08
2023-01-17T02:57:58.004Z,19.90
2023-01-17T03:01:03.135Z,22.38
2023-01-17T03:04:44.560Z,24.17
2023-01-17T03:07:48.420Z,21.87
2023-01-17T03:10:50.825Z,27.80
2023-01-17T03:13:57.300Z,23.90
2023-01-17T03:16:59.895Z,22.03
2023-01-17T03:20:02.348Z,26.20
2023-01-17T03:23:04.717Z,26.92
2023-01-17T03:26:07.198Z,21.90
2023-01-17T03:29:09.828Z,20.67
2023-01-17T03:32:12.289Z,21.35
2023-01-17T03:35:14.762Z,20.85
2023-01-17T03:38:17.361Z,19.83
2023-01-17T03:41:19.828Z,18.88
2023-01-17T03:44:22.456Z,18.60
2023-01-17T03:47:24.826Z,21.77
2023-01-17T03:50:27.278Z,17.98
2023-01-17T03:53:29.673Z,19.42
2023-01-17T03:56:32.011Z,20.85
2023-01-17T03:59:34.666Z,23.92
2023-01-17T04:02:37.455Z,18.65
2023-01-17T04:05:39.799Z,17.35
2023-01-17T04:08:42.498Z,20.03
2023-01-17T04:11:45.489Z,21.00
2023-01-17T04:14:48.224Z,21.05
2023-01-17T04:17:50.680Z,17.93
2023-01-17T04:20:53.050Z,16.77
2023-01-17T04:23:55.365Z,18.13
2023-01-17T04:26:57.794Z,18.13
2023-01-17T04:30:00.222Z,19.52
2023-01-17T04:33:03.056Z,18.08
2023-01-17T04:36:06.647Z,18.08
2023-01-17T04:39:09.084Z,17.70
2023-01-17T04:42:11.408Z,17.15
2023-01-17T04:45:14.415Z,20.08
2023-01-17T04:48:17.017Z,20.17
2023-01-17T04:51:19.590Z,18.75
2023-01-17T04:54:22.110Z,17.13
2023-01-17T04:57:25.248Z,21.30
2023-01-17T05:00:27.673Z,19.13
2023-01-17T05:03:30.535Z,22.52
2023-01-17T05:06:32.882Z,16.25
2023-01-17T05:09:35.464Z,18.40
2023-01-17T05:12:37.889Z,20.08
2023-01-17T05:15:40.533Z,20.02
2023-01-17T05:18:42.921Z,22.47
2023-01-17T05:21:45.282Z,28.95
2023-01-17T05:24:48.149Z,37.45
2023-01-17T05:27:50.813Z,30.40
2023-01-17T05:30:53.273Z,21.13
2023-01-17T05:33:55.788Z,21.98
2023-01-17T05:36:59.065Z,20.02
2023-01-17T05:40:01.447Z,21.53
2023-01-17T05:43:04.193Z,20.83
2023-01-17T05:46:06.642Z,21.35
2023-01-17T05:49:09.126Z,20.03
2023-01-17T05:52:11.500Z,23.77
2023-01-17T05:55:13.912Z,28.40
2023-01-17T05:58:19.714Z,23.73
2023-01-17T06:01:22.373Z,27.00
2023-01-17T06:04:24.772Z,32.58
2023-01-17T06:07:27.110Z,26.50
2023-01-17T06:10:29.739Z,13.23
2023-01-17T06:13:32.663Z,19.92
2023-01-17T06:16:35.340Z,21.17
2023-01-17T06:19:37.700Z,15.63
2023-01-17T06:22:40.079Z,15.73
2023-01-17T06:25:45.062Z,13.27
2023-01-17T06:28:48.032Z,15.18
2023-01-17T06:31:50.633Z,10.68
2023-01-17T06:34:53.004Z,15.05
2023-01-17T06:37:58.106Z,19.38
2023-01-17T06:41:04.408Z,17.23
2023-01-17T06:44:07.819Z,18.73
2023-01-17T06:47:10.242Z,18.08
2023-01-17T06:50:14.643Z,16.20
2023-01-17T06:53:17.232Z,17.67
2023-01-17T06:56:20.042Z,17.88
2023-01-17T06:59:22.398Z,14.30
2023-01-17T07:02:25.057Z,17.55
2023-01-17T07:05:29.131Z,20.65
2023-01-17T07:08:33.549Z,26.20
2023-01-17T07:11:37.419Z,22.97
2023-01-17T07:14:40.885Z,19.85
2023-01-17T07:17:43.971Z,16.42
2023-01-17T07:20:46.893Z,20.97
2023-01-17T07:23:49.441Z,15.10
2023-01-17T07:26:51.965Z,19.60
2023-01-17T07:29:54.555Z,22.27
2023-01-17T07:32:56.988Z,28.10
2023-01-17T07:36:03.982Z,20.52
2023-01-17T07:39:06.501Z,29.67
2023-01-17T07:42:09.329Z,15.27
2023-01-17T07:45:14.222Z,9.55
2023-01-17T07:48:18.344Z,13.35
2023-01-17T07:51:20.751Z,13.33
2023-01-17T07:54:24.166Z,10.23
2023-01-17T07:57:26.525Z,11.38
2023-01-17T08:00:30.236Z,47.97
2023-01-17T08:03:40.231Z,8.10
2023-01-17T08:06:47.532Z,12.98
2023-01-17T08:09:50.545Z,14.27
2023-01-17T08:12:53.033Z,13.40
2023-01-17T08:15:55.472Z,16.77
2023-01-17T08:18:57.980Z,27.13
2023-01-17T08:22:00.375Z,19.00
2023-01-17T08:25:02.841Z,14.57
2023-01-17T08:28:05.490Z,14.25
2023-01-17T08:31:09.715Z,5.68
2023-01-17T08:34:14.170Z,8.52
2023-01-17T08:37:16.572Z,7.85
2023-01-17T08:40:19.814Z,8.13
2023-01-17T08:43:22.445Z,7.83
2023-01-17T08:46:24.887Z,6.55
2023-01-17T08:49:30.448Z,6.15
2023-01-17T08:52:33.956Z,6.97
2023-01-17T08:55:39.627Z,5.93
2023-01-17T08:58:42.079Z,9.48
2023-01-17T09:01:46.002Z,7.88
2023-01-17T09:04:49.929Z,9.52
2023-01-17T09:07:52.328Z,9.02
2023-01-17T09:10:54.704Z,10.88
2023-01-17T09:13:57.100Z,9.43
2023-01-17T09:16:59.500Z,7.45
2023-01-17T09:20:02.415Z,6.30
2023-01-17T09:23:04.877Z,7.27
2023-01-17T09:26:07.741Z,8.75
2023-01-17T09:29:10.249Z,8.57
2023-01-17T09:32:12.952Z,7.50
2023-01-17T09:35:15.642Z,6.60
2023-01-17T09:38:18.105Z,6.18
2023-01-17T09:41:27.998Z,8.10
2023-01-17T09:44:45.010Z,7.27
2023-01-17T09:47:53.859Z,7.78
2023-01-17T09:51:24.137Z,8.35
2023-01-17T09:54:36.672Z,5.73
2023-01-17T09:58:00.298Z,8.27
2023-01-17T10:01:15.602Z,5.70
2023-01-17T10:04:54.905Z,5.60
2023-01-17T10:08:04.371Z,6.30
2023-01-17T10:11:39.295Z,5.18
2023-01-17T10:14:55.427Z,4.60
2023-01-17T10:18:05.381Z,6.10
2023-01-17T10:21:19.856Z,4.53
2023-01-17T10:24:35.630Z,3.85
2023-01-17T10:27:41.852Z,6.00
2023-01-17T10:30:51.831Z,4.30
2023-01-17T10:33:58.370Z,5.13
2023-01-17T10:37:15.799Z,3.28
2023-01-17T10:40:29.773Z,4.03
2023-01-17T10:43:40.892Z,3.50
2023-01-17T10:46:55.624Z,3.25
2023-01-17T10:49:59.423Z,3.87
2023-01-17T10:53:16.366Z,4.03
2023-01-17T10:56:25.735Z,3.03
2023-01-17T10:59:31.814Z,3.03
2023-01-17T11:02:39.960Z,2.70
2023-01-17T11:05:43.506Z,1.08
2023-01-17T11:08:57.337Z,2.60
2023-01-17T11:11:59.697Z,1.63
2023-01-17T11:15:10.846Z,1.98
2023-01-17T11:18:19.578Z,2.72
2023-01-17T11:21:24.345Z,5.80
2023-01-17T11:24:33.377Z,2.85
2023-01-17T11:27:39.526Z,2.75
2023-01-17T11:30:52.290Z,2.70
2023-01-17T11:34:29.477Z,2.28
2023-01-17T11:37:32.071Z,1.60
2023-01-17T11:40:42.828Z,1.88
2023-01-17T11:44:20.349Z,1.98
2023-01-17T11:47:22.663Z,2.42
2023-01-17T11:50:26.634Z,2.13
2023-01-17T11:53:40.424Z,3.03
2023-01-17T11:56:46.132Z,106.10
2023-01-17T11:59:49.086Z,145.95
2023-01-17T12:03:06.408Z,35.23
2023-01-17T12:06:20.239Z,3.88
2023-01-17T12:09:35.739Z,2.72
2023-01-17T12:13:13.240Z,1.33
2023-01-17T12:16:34.132Z,19.75
2023-01-17T12:20:05.918Z,5.53
2023-01-17T12:23:28.401Z,1.08
2023-01-17T12:26:55.080Z,3.10
2023-01-17T12:30:26.145Z,1.98
2023-01-17T12:33:38.809Z,1.60
2023-01-17T12:36:49.475Z,1.80
2023-01-17T12:40:05.133Z,1.67
2023-01-17T12:43:25.407Z,1.63
2023-01-17T12:46:38.464Z,0.95
2023-01-17T12:50:00.791Z,1.50
2023-01-17T12:53:16.426Z,1.33
2023-01-17T12:56:28.613Z,1.58
2023-01-17T12:59:49.446Z,0.87
2023-01-17T13:03:24.702Z,1.38
2023-01-17T13:06:45.733Z,2.95
2023-01-17T13:10:03.373Z,3.07
2023-01-17T13:13:26.728Z,2.25
2023-01-17T13:16:59.968Z,1.70
2023-01-17T13:20:28.841Z,1.88
2023-01-17T13:23:44.945Z,1.80
2023-01-17T13:26:56.479Z,1.25
2023-01-17T13:30:22.200Z,2.65
2023-01-17T13:33:49.029Z,2.70
2023-01-17T13:36:54.199Z,1.80
2023-01-17T13:40:25.181Z,4.85
2023-01-17T13:43:39.714Z,1.77
2023-01-17T13:47:05.126Z,2.75
2023-01-17T13:50:36.395Z,1.63
2023-01-17T13:53:38.858Z,2.20
2023-01-17T13:56:41.336Z,2.17
2023-01-17T13:59:44.057Z,1.55
2023-01-17T14:02:48.029Z,2.25
2023-01-17T14:05:56.932Z,1.70
2023-01-17T14:09:08.084Z,2.60
2023-01-17T14:12:10.452Z,4.82
2023-01-17T14:15:31.281Z,2.07
2023-01-17T14:18:40.047Z,2.10
2023-01-17T14:21:42.887Z,1.90
2023-01-17T14:25:03.897Z,2.13
2023-01-17T14:28:21.851Z,3.97
2023-01-17T14:31:24.764Z,10.75
2023-01-17T14:34:27.444Z,7.95
2023-01-17T14:37:32.662Z,3.77
2023-01-17T14:40:38.500Z,5.55
2023-01-17T14:43:46.315Z,107.15
2023-01-17T14:46:49.248Z,6.33
2023-01-17T14:50:10.910Z,8.70
2023-01-17T14:53:13.376Z,14.63
2023-01-17T14:56:17.748Z,6.93
2023-01-17T14:59:22.125Z,9.43
2023-01-17T15:02:24.991Z,8.63
2023-01-17T15:05:30.185Z,9.50
2023-01-17T15:08:35.443Z,6.67
2023-01-17T15:11:38.791Z,4.63
2023-01-17T15:14:44.490Z,4.85
2023-01-17T15:17:46.955Z,7.20
2023-01-17T15:20:58.032Z,6.78
2023-01-17T15:24:07.080Z,5.57
2023-01-17T15:27:12.753Z,5.72
2023-01-17T15:30:16.118Z,6.72
2023-01-17T15:33:21.110Z,38.88
2023-01-17T15:36:30.105Z,25.67
2023-01-17T15:39:38.934Z,13.27
2023-01-17T15:42:43.582Z,3.88
2023-01-17T15:45:55.977Z,4.47
2023-01-17T15:49:17.763Z,4.30
2023-01-17T15:52:21.573Z,31.00
2023-01-17T15:55:29.734Z,7.22
2023-01-17T15:58:32.222Z,14.77
2023-01-17T16:01:34.857Z,19.15
2023-01-17T16:04:42.331Z,19.35
2023-01-17T16:07:44.839Z,15.05
2023-01-17T16:10:47.317Z,15.83
2023-01-17T16:13:50.345Z,32.53
2023-01-17T16:16:53.519Z,29.38
2023-01-17T16:19:56.014Z,36.73
2023-01-17T16:23:00.329Z,38.05
2023-01-17T16:26:02.976Z,52.28
2023-01-17T16:29:07.588Z,37.20
2023-01-17T16:32:10.146Z,29.02
2023-01-17T16:35:19.130Z,30.83
2023-01-17T16:38:21.583Z,29.15
2023-01-17T16:41:23.902Z,18.43
2023-01-17T16:44:26.248Z,13.55
2023-01-17T16:47:28.622Z,12.55
2023-01-17T16:50:31.078Z,12.43
2023-01-17T16:53:35.405Z,9.73
2023-01-17T16:56:37.848Z,10.48
2023-01-17T16:59:50.433Z,32.70
2023-01-17T17:02:53.876Z,50.42
2023-01-17T17:06:01.078Z,62.03
2023-01-17T17:09:03.702Z,36.70
2023-01-17T17:12:06.736Z,39.37
2023-01-17T17:15:10.782Z,25.70
2023-01-17T17:18:15.167Z,19.30
2023-01-17T17:21:17.525Z,22.63
2023-01-17T17:24:20.239Z,40.17
2023-01-17T17:27:26.428Z,24.50
2023-01-17T17:30:29.070Z,22.52
2023-01-17T17:33:31.438Z,23.45
2023-01-17T17:36:35.282Z,20.20
2023-01-17T17:39:38.795Z,22.88
2023-01-17T17:42:42.860Z,24.13
2023-01-17T17:45:45.290Z,20.40
2023-01-17T17:48:48.679Z,19.85
2023-01-17T17:51:51.200Z,19.13
2023-01-17T17:54:53.749Z,13.70
2023-01-17T17:57:56.593Z,9.48
2023-01-17T18:01:02.732Z,18.38
2023-01-17T18:04:07.437Z,10.60
2023-01-17T18:07:09.963Z,10.18
2023-01-17T18:10:12.317Z,9.30
2023-01-17T18:13:14.829Z,4.90
2023-01-17T18:16:26.385Z,6.25
2023-01-17T18:19:29.835Z,5.43
2023-01-17T18:22:33.548Z,7.57
2023-01-17T18:25:36.548Z,8.93
2023-01-17T18:28:38.902Z,5.88
2023-01-17T18:31:42.737Z,34.88
2023-01-17T18:34:47.069Z,9.45
2023-01-17T18:37:49.637Z,28.10
2023-01-17T18:40:52.389Z,21.83
2023-01-17T18:43:57.770Z,14.27
2023-01-17T18:47:04.734Z,7.47
2023-01-17T18:50:07.430Z,8.05
2023-01-17T18:53:10.037Z,11.80
2023-01-17T18:56:18.856Z,8.32
2023-01-17T18:59:23.378Z,6.25
2023-01-17T19:02:26.992Z,7.18
2023-01-17T19:05:29.458Z,12.73
2023-01-17T19:08:34.004Z,11.40
2023-01-17T19:11:36.915Z,13.93
2023-01-17T19:14:39.986Z,8.27
2023-01-17T19:17:42.549Z,14.93
2023-01-17T19:20:45.959Z,10.95
2023-01-17T19:23:48.918Z,9.07
2023-01-17T19:26:53.239Z,7.22
2023-01-17T19:29:55.940Z,10.27
2023-01-17T19:32:58.587Z,6.00
2023-01-17T19:36:03.734Z,9.63
2023-01-17T19:39:09.488Z,13.10
2023-01-17T19:42:15.651Z,11.25
2023-01-17T19:45:18.319Z,16.17
2023-01-17T19:48:22.573Z,19.02
2023-01-17T19:51:26.830Z,22.63
2023-01-17T19:54:29.464Z,23.37
2023-01-17T19:57:34.993Z,25.38
2023-01-17T20:00:46.134Z,20.38
2023-01-17T20:03:50.103Z,21.77
2023-01-17T20:06:53.570Z,22.35
2023-01-17T20:09:56.140Z,18.35
2023-01-17T20:12:58.731Z,24.08
2023-01-17T20:16:03.840Z,16.77
2023-01-17T20:19:06.733Z,20.85
2023-01-17T20:22:09.302Z,23.48
2023-01-17T20:25:12.305Z,21.00
2023-01-17T20:28:14.846Z,19.98
2023-01-17T20:31:27.445Z,17.45
2023-01-17T20:34:31.497Z,15.07
2023-01-17T20:37:34.173Z,15.02
2023-01-17T20:40:36.833Z,15.77
2023-01-17T20:43:40.073Z,12.55
2023-01-17T20:46:43.063Z,10.87
2023-01-17T20:49:45.657Z,11.73
2023-01-17T20:52:51.143Z,11.15
2023-01-17T20:55:57.469Z,12.57
2023-01-17T20:59:03.928Z,11.82
2023-01-17T21:02:09.995Z,10.27
2023-01-17T21:05:12.940Z,12.15
2023-01-17T21:08:17.767Z,10.68
2023-01-17T21:11:23.693Z,10.38
2023-01-17T21:14:26.443Z,9.63
2023-01-17T21:17:29.072Z,12.47
2023-01-17T21:20:34.717Z,6.60
2023-01-17T21:23:39.035Z,9.18
2023-01-17T21:26:44.435Z,8.63
2023-01-17T21:29:47.528Z,7.40
2023-01-17T21:32:49.995Z,10.45
2023-01-17T21:35:52.970Z,10.77
2023-01-17T21:38:57.802Z,7.45
2023-01-17T21:42:00.602Z,6.32
2023-01-17T21:45:03.008Z,5.57
2023-01-17T21:48:12.070Z,4.70
2023-01-17T21:51:14.710Z,6.95
2023-01-17T21:54:17.060Z,6.25
2023-01-17T21:57:40.251Z,9.57
2023-01-17T22:00:43.395Z,8.10
2023-01-17T22:03:52.740Z,7.18
2023-01-17T22:06:55.101Z,7.93
2023-01-17T22:09:57.557Z,4.57
2023-01-17T22:13:00.036Z,8.38
2023-01-17T22:16:04.727Z,8.18
2023-01-17T22:19:08.160Z,8.27
2023-01-17T22:22:10.507Z,13.23
2023-01-17T22:25:12.852Z,7.68
2023-01-17T22:28:15.267Z,6.80
2023-01-17T22:31:19.277Z,7.38
2023-01-17T22:34:22.848Z,8.52
2023-01-17T22:37:25.697Z,5.95
2023-01-17T22:40:28.768Z,7.93
2023-01-17T22:43:31.074Z,9.57
2023-01-17T22:46:37.180Z,8.60
2023-01-17T22:49:39.652Z,8.53
2023-01-17T22:52:41.983Z,8.77
2023-01-17T22:55:44.344Z,6.20
2023-01-17T22:58:49.090Z,5.10
2023-01-17T23:01:51.937Z,5.75
2023-01-17T23:04:54.370Z,8.68
2023-01-17T23:07:57.192Z,6.95
2023-01-17T23:11:37.800Z,7.70
2023-01-17T23:14:58.737Z,7.40
2023-01-17T23:18:19.473Z,5.10
2023-01-17T23:21:22.178Z,6.23
2023-01-17T23:24:24.750Z,6.53
2023-01-17T23:28:05.336Z,7.07
2023-01-17T23:31:10.272Z,4.13
2023-01-17T23:34:12.596Z,5.25
2023-01-17T23:37:15.187Z,4.80
2023-01-17T23:40:18.199Z,5.15
2023-01-17T23:43:23.628Z,4.40
2023-01-17T23:46:26.568Z,4.22
2023-01-17T23:49:31.345Z,3.45
2023-01-17T23:52:33.748Z,3.90
2023-01-17T23:55:41.944Z,5.50
2023-01-17T23:58:44.510Z,4.38
